sensor_id;sensor_type;location;lat;lon;timestamp;pressure;altitude;pressure_sealevel;temperature;humidity
17309;BME280;8772;42.804;23.426;2023-01-29T00:01:32;74936.09;;;-140.58;100.00
17309;BME280;8772;42.804;23.426;2023-01-29T00:03:58;74938.13;;;-140.58;100.00
17309;BME280;8772;42.804;23.426;2023-01-29T00:06:27;74942.25;;;-140.58;100.00
17309;BME280;8772;42.804;23.426;2023-01-29T00:08:53;74938.13;;;-140.58;100.00
17309;BME280;8772;42.804;23.426;2023-01-29T00:11:20;74934.03;;;-140.58;100.00
17309;BME280;8772;42.804;23.426;2023-01-29T00:13:48;74934.03;;;-140.58;100.00
17309;BME280;8772;42.804;23.426;2023-01-29T00:16:15;74936.09;;;-140.58;100.00
17309;BME280;8772;42.804;23.426;2023-01-29T00:18:42;74929.94;;;-140.58;100.00
17309;BME280;8772;42.804;23.426;2023-01-29T00:21:10;74938.13;;;-140.58;100.00
17309;BME280;8772;42.804;23.426;2023-01-29T00:23:38;74950.44;;;-140.58;100.00
17309;BME280;8772;42.804;23.426;2023-01-29T00:26:06;74940.19;;;-140.58;100.00
17309;BME280;8772;42.804;23.426;2023-01-29T00:28:33;74940.19;;;-140.58;100.00
17309;BME280;8772;42.804;23.426;2023-01-29T00:31:06;74946.34;;;-140.58;100.00
17309;BME280;8772;42.804;23.426;2023-01-29T00:33:33;74958.66;;;-140.58;100.00
17309;BME280;8772;42.804;23.426;2023-01-29T00:36:01;74942.25;;;-140.58;100.00
17309;BME280;8772;42.804;23.426;2023-01-29T00:38:28;74934.03;;;-140.58;100.00
17309;BME280;8772;42.804;23.426;2023-01-29T00:41:04;74946.34;;;-140.58;100.00
17309;BME280;8772;42.804;23.426;2023-01-29T00:43:49;74929.94;;;-140.58;100.00
17309;BME280;8772;42.804;23.426;2023-01-29T00:46:47;74923.78;;;-140.58;100.00
17309;BME280;8772;42.804;23.426;2023-01-29T00:49:14;74927.88;;;-140.58;100.00
17309;BME280;8772;42.804;23.426;2023-01-29T00:51:41;74929.94;;;-140.58;100.00
17309;BME280;8772;42.804;23.426;2023-01-29T00:54:08;74929.94;;;-140.58;100.00
17309;BME280;8772;42.804;23.426;2023-01-29T00:56:37;74934.03;;;-140.58;100.00
17309;BME280;8772;42.804;23.426;2023-01-29T00:59:03;74934.03;;;-140.58;100.00
17309;BME280;8772;42.804;23.426;2023-01-29T01:01:30;74929.94;;;-140.58;100.00
17309;BME280;8772;42.804;23.426;2023-01-29T01:07:36;74929.94;;;-140.58;100.00
17309;BME280;8772;42.804;23.426;2023-01-29T01:10:04;74934.03;;;-140.58;100.00
17309;BME280;8772;42.804;23.426;2023-01-29T01:12:47;74934.03;;;-140.58;100.00
17309;BME280;8772;42.804;23.426;2023-01-29T01:15:15;74946.34;;;-140.58;100.00
17309;BME280;8772;42.804;23.426;2023-01-29T01:17:42;74938.13;;;-140.58;100.00
17309;BME280;8772;42.804;23.426;2023-01-29T01:20:11;74942.25;;;-140.58;100.00
17309;BME280;8772;42.804;23.426;2023-01-29T01:22:38;74946.34;;;-140.58;100.00
17309;BME280;8772;42.804;23.426;2023-01-29T01:25:05;74936.09;;;-140.58;100.00
17309;BME280;8772;42.804;23.426;2023-01-29T01:27:32;74942.25;;;-140.58;100.00
17309;BME280;8772;42.804;23.426;2023-01-29T01:30:04;74942.25;;;-140.58;100.00
17309;BME280;8772;42.804;23.426;2023-01-29T01:32:31;74946.34;;;-140.58;100.00
17309;BME280;8772;42.804;23.426;2023-01-29T01:34:58;74958.66;;;-140.58;100.00
17309;BME280;8772;42.804;23.426;2023-01-29T01:37:25;74950.44;;;-140.58;100.00
17309;BME280;8772;42.804;23.426;2023-01-29T01:39:52;74940.19;;;-140.58;100.00
17309;BME280;8772;42.804;23.426;2023-01-29T01:42:22;74940.19;;;-140.58;100.00
17309;BME280;8772;42.804;23.426;2023-01-29T01:44:54;74950.44;;;-140.58;100.00
17309;BME280;8772;42.804;23.426;2023-01-29T01:47:28;74946.34;;;-140.58;100.00
17309;BME280;8772;42.804;23.426;2023-01-29T01:49:59;74946.34;;;-140.58;100.00
17309;BME280;8772;42.804;23.426;2023-01-29T01:52:29;74938.13;;;-140.58;100.00
17309;BME280;8772;42.804;23.426;2023-01-29T01:54:58;74950.44;;;-140.58;100.00
17309;BME280;8772;42.804;23.426;2023-01-29T01:57:26;74946.34;;;-140.58;100.00
17309;BME280;8772;42.804;23.426;2023-01-29T01:59:57;74946.34;;;-140.58;100.00
17309;BME280;8772;42.804;23.426;2023-01-29T02:02:29;74936.09;;;-140.58;100.00
17309;BME280;8772;42.804;23.426;2023-01-29T02:05:14;74942.25;;;-140.58;100.00
17309;BME280;8772;42.804;23.426;2023-01-29T02:07:58;74946.34;;;-140.58;100.00
17309;BME280;8772;42.804;23.426;2023-01-29T02:10:45;74938.13;;;-140.58;100.00
17309;BME280;8772;42.804;23.426;2023-01-29T02:13:13;74934.03;;;-140.58;100.00
17309;BME280;8772;42.804;23.426;2023-01-29T02:15:43;74934.03;;;-140.58;100.00
17309;BME280;8772;42.804;23.426;2023-01-29T02:18:13;74925.81;;;-140.58;100.00
17309;BME280;8772;42.804;23.426;2023-01-29T02:20:46;74927.88;;;-140.58;100.00
17309;BME280;8772;42.804;23.426;2023-01-29T02:26:49;74944.28;;;-140.58;100.00
17309;BME280;8772;42.804;23.426;2023-01-29T02:29:24;74946.34;;;-140.58;100.00
17309;BME280;8772;42.804;23.426;2023-01-29T02:32:05;74952.50;;;-140.58;100.00
17309;BME280;8772;42.804;23.426;2023-01-29T02:34:41;74950.44;;;-140.58;100.00
17309;BME280;8772;42.804;23.426;2023-01-29T02:37:35;74952.50;;;-140.58;100.00
17309;BME280;8772;42.804;23.426;2023-01-29T02:40:12;74954.56;;;-140.58;100.00
17309;BME280;8772;42.804;23.426;2023-01-29T02:42:47;74956.59;;;-140.58;100.00
17309;BME280;8772;42.804;23.426;2023-01-29T02:45:21;74948.41;;;-140.58;100.00
17309;BME280;8772;42.804;23.426;2023-01-29T02:47:56;74950.44;;;-140.58;100.00
17309;BME280;8772;42.804;23.426;2023-01-29T02:50:29;74925.81;;;-140.58;100.00
17309;BME280;8772;42.804;23.426;2023-01-29T02:53:00;74936.09;;;-140.58;100.00
17309;BME280;8772;42.804;23.426;2023-01-29T02:55:34;74946.34;;;-140.58;100.00
17309;BME280;8772;42.804;23.426;2023-01-29T02:58:08;74936.09;;;-140.58;100.00
17309;BME280;8772;42.804;23.426;2023-01-29T03:00:40;74944.28;;;-140.58;100.00
17309;BME280;8772;42.804;23.426;2023-01-29T03:03:13;74940.19;;;-140.58;100.00
17309;BME280;8772;42.804;23.426;2023-01-29T03:05:48;74934.03;;;-140.58;100.00
17309;BME280;8772;42.804;23.426;2023-01-29T03:08:22;74929.94;;;-140.58;100.00
17309;BME280;8772;42.804;23.426;2023-01-29T03:11:03;74929.94;;;-140.58;100.00
17309;BME280;8772;42.804;23.426;2023-01-29T03:13:37;74929.94;;;-140.58;100.00
17309;BME280;8772;42.804;23.426;2023-01-29T03:16:12;74938.13;;;-140.58;100.00
17309;BME280;8772;42.804;23.426;2023-01-29T03:18:42;74940.19;;;-140.58;100.00
17309;BME280;8772;42.804;23.426;2023-01-29T03:21:17;74938.13;;;-140.58;100.00
17309;BME280;8772;42.804;23.426;2023-01-29T03:24:03;74934.03;;;-140.58;100.00
17309;BME280;8772;42.804;23.426;2023-01-29T03:26:49;74942.25;;;-140.58;100.00
17309;BME280;8772;42.804;23.426;2023-01-29T03:29:34;74942.25;;;-140.58;100.00
17309;BME280;8772;42.804;23.426;2023-01-29T03:32:22;74938.13;;;-140.58;100.00
17309;BME280;8772;42.804;23.426;2023-01-29T03:34:53;74946.34;;;-140.58;100.00
17309;BME280;8772;42.804;23.426;2023-01-29T03:37:26;74942.25;;;-140.58;100.00
17309;BME280;8772;42.804;23.426;2023-01-29T03:39:55;74946.34;;;-140.58;100.00
17309;BME280;8772;42.804;23.426;2023-01-29T03:42:27;74942.25;;;-140.58;100.00
17309;BME280;8772;42.804;23.426;2023-01-29T03:44:59;74942.25;;;-140.58;100.00
17309;BME280;8772;42.804;23.426;2023-01-29T03:47:40;74938.13;;;-140.58;100.00
17309;BME280;8772;42.804;23.426;2023-01-29T03:50:14;74938.13;;;-140.58;100.00
17309;BME280;8772;42.804;23.426;2023-01-29T03:52:49;74931.97;;;-140.58;100.00
17309;BME280;8772;42.804;23.426;2023-01-29T03:55:25;74927.88;;;-140.58;100.00
17309;BME280;8772;42.804;23.426;2023-01-29T03:57:58;74929.94;;;-140.58;100.00
17309;BME280;8772;42.804;23.426;2023-01-29T04:00:28;74942.25;;;-140.58;100.00
17309;BME280;8772;42.804;23.426;2023-01-29T04:03:02;74929.94;;;-140.58;100.00
17309;BME280;8772;42.804;23.426;2023-01-29T04:05:36;74925.81;;;-140.58;100.00
17309;BME280;8772;42.804;23.426;2023-01-29T04:08:08;74923.78;;;-140.58;100.00
17309;BME280;8772;42.804;23.426;2023-01-29T04:10:38;74938.13;;;-140.58;100.00
17309;BME280;8772;42.804;23.426;2023-01-29T04:13:10;74936.09;;;-140.58;100.00
17309;BME280;8772;42.804;23.426;2023-01-29T04:15:43;74938.13;;;-140.58;100.00
17309;BME280;8772;42.804;23.426;2023-01-29T04:18:13;74936.09;;;-140.58;100.00
17309;BME280;8772;42.804;23.426;2023-01-29T04:20:40;74934.03;;;-140.58;100.00
17309;BME280;8772;42.804;23.426;2023-01-29T04:23:19;74931.97;;;-140.58;100.00
17309;BME280;8772;42.804;23.426;2023-01-29T04:25:53;74934.03;;;-140.58;100.00
17309;BME280;8772;42.804;23.426;2023-01-29T04:28:45;74934.03;;;-140.58;100.00
17309;BME280;8772;42.804;23.426;2023-01-29T04:31:17;74938.13;;;-140.58;100.00
17309;BME280;8772;42.804;23.426;2023-01-29T04:33:52;74934.03;;;-140.58;100.00
17309;BME280;8772;42.804;23.426;2023-01-29T04:36:27;74938.13;;;-140.58;100.00
17309;BME280;8772;42.804;23.426;2023-01-29T04:39:03;74948.41;;;-140.58;100.00
17309;BME280;8772;42.804;23.426;2023-01-29T04:41:39;74946.34;;;-140.58;100.00
17309;BME280;8772;42.804;23.426;2023-01-29T04:44:16;74944.28;;;-140.58;100.00
17309;BME280;8772;42.804;23.426;2023-01-29T04:46:47;74942.25;;;-140.58;100.00
17309;BME280;8772;42.804;23.426;2023-01-29T04:49:26;74952.50;;;-140.58;100.00
17309;BME280;8772;42.804;23.426;2023-01-29T04:52:00;74954.56;;;-140.58;100.00
17309;BME280;8772;42.804;23.426;2023-01-29T04:54:37;74950.44;;;-140.58;100.00
17309;BME280;8772;42.804;23.426;2023-01-29T04:57:15;74962.75;;;-140.58;100.00
17309;BME280;8772;42.804;23.426;2023-01-29T04:59:46;74966.88;;;-140.58;100.00
17309;BME280;8772;42.804;23.426;2023-01-29T05:02:14;74962.75;;;-140.58;100.00
17309;BME280;8772;42.804;23.426;2023-01-29T05:04:43;74958.66;;;-140.58;100.00
17309;BME280;8772;42.804;23.426;2023-01-29T05:07:13;74966.88;;;-140.58;100.00
17309;BME280;8772;42.804;23.426;2023-01-29T05:09:43;74962.75;;;-140.58;100.00
17309;BME280;8772;42.804;23.426;2023-01-29T05:12:12;74966.88;;;-140.58;100.00
17309;BME280;8772;42.804;23.426;2023-01-29T05:14:42;74960.72;;;-140.58;100.00
17309;BME280;8772;42.804;23.426;2023-01-29T05:17:14;74958.66;;;-140.58;100.00
17309;BME280;8772;42.804;23.426;2023-01-29T05:19:42;74952.50;;;-140.58;100.00
17309;BME280;8772;42.804;23.426;2023-01-29T05:22:11;74948.41;;;-140.58;100.00
17309;BME280;8772;42.804;23.426;2023-01-29T05:24:39;74950.44;;;-140.58;100.00
17309;BME280;8772;42.804;23.426;2023-01-29T05:27:09;74948.41;;;-140.58;100.00
17309;BME280;8772;42.804;23.426;2023-01-29T05:29:58;74942.25;;;-140.58;100.00
17309;BME280;8772;42.804;23.426;2023-01-29T05:32:25;74944.28;;;-140.58;100.00
17309;BME280;8772;42.804;23.426;2023-01-29T05:34:53;74942.25;;;-140.58;100.00
17309;BME280;8772;42.804;23.426;2023-01-29T05:37:20;74944.28;;;-140.58;100.00
17309;BME280;8772;42.804;23.426;2023-01-29T05:39:47;74938.13;;;-140.58;100.00
17309;BME280;8772;42.804;23.426;2023-01-29T05:42:14;74936.09;;;-140.58;100.00
17309;BME280;8772;42.804;23.426;2023-01-29T05:44:41;74934.03;;;-140.58;100.00
17309;BME280;8772;42.804;23.426;2023-01-29T05:47:07;74942.25;;;-140.58;100.00
17309;BME280;8772;42.804;23.426;2023-01-29T05:49:34;74942.25;;;-140.58;100.00
17309;BME280;8772;42.804;23.426;2023-01-29T05:52:03;74946.34;;;-140.58;100.00
17309;BME280;8772;42.804;23.426;2023-01-29T05:54:30;74946.34;;;-140.58;100.00
17309;BME280;8772;42.804;23.426;2023-01-29T05:56:57;74950.44;;;-140.58;100.00
17309;BME280;8772;42.804;23.426;2023-01-29T05:59:23;74956.59;;;-140.58;100.00
17309;BME280;8772;42.804;23.426;2023-01-29T06:01:50;74962.75;;;-140.58;100.00
17309;BME280;8772;42.804;23.426;2023-01-29T06:04:17;74962.75;;;-140.58;100.00
17309;BME280;8772;42.804;23.426;2023-01-29T06:06:44;74958.66;;;-140.58;100.00
17309;BME280;8772;42.804;23.426;2023-01-29T06:09:12;74950.44;;;-140.58;100.00
17309;BME280;8772;42.804;23.426;2023-01-29T06:11:39;74958.66;;;-140.58;100.00
17309;BME280;8772;42.804;23.426;2023-01-29T06:14:06;74954.56;;;-140.58;100.00
17309;BME280;8772;42.804;23.426;2023-01-29T06:16:33;74962.75;;;-140.58;100.00
17309;BME280;8772;42.804;23.426;2023-01-29T06:19:00;74962.75;;;-140.58;100.00
17309;BME280;8772;42.804;23.426;2023-01-29T06:21:27;74970.97;;;-140.58;100.00
17309;BME280;8772;42.804;23.426;2023-01-29T06:23:54;74966.88;;;-140.58;100.00
17309;BME280;8772;42.804;23.426;2023-01-29T06:26:22;74964.81;;;-140.58;100.00
17309;BME280;8772;42.804;23.426;2023-01-29T06:28:49;74958.66;;;-140.58;100.00
17309;BME280;8772;42.804;23.426;2023-01-29T06:31:17;74966.88;;;-140.58;100.00
17309;BME280;8772;42.804;23.426;2023-01-29T06:33:44;74966.88;;;-140.58;100.00
17309;BME280;8772;42.804;23.426;2023-01-29T06:36:11;74966.88;;;-140.58;100.00
17309;BME280;8772;42.804;23.426;2023-01-29T06:38:38;74970.97;;;-140.58;100.00
17309;BME280;8772;42.804;23.426;2023-01-29T06:41:08;74973.03;;;-140.58;100.00
17309;BME280;8772;42.804;23.426;2023-01-29T06:43:37;74970.97;;;-140.58;100.00
17309;BME280;8772;42.804;23.426;2023-01-29T06:46:06;74968.91;;;-140.58;100.00
17309;BME280;8772;42.804;23.426;2023-01-29T06:48:33;74966.88;;;-140.58;100.00
17309;BME280;8772;42.804;23.426;2023-01-29T06:51:02;74966.88;;;-140.58;100.00
17309;BME280;8772;42.804;23.426;2023-01-29T06:53:29;74962.75;;;-140.58;100.00
17309;BME280;8772;42.804;23.426;2023-01-29T06:55:56;74966.88;;;-140.58;100.00
17309;BME280;8772;42.804;23.426;2023-01-29T06:58:23;74975.06;;;-140.58;100.00
17309;BME280;8772;42.804;23.426;2023-01-29T07:00:52;74970.97;;;-140.58;100.00
17309;BME280;8772;42.804;23.426;2023-01-29T07:03:19;74981.22;;;-140.58;100.00
17309;BME280;8772;42.804;23.426;2023-01-29T07:05:49;74987.38;;;-140.58;100.00
17309;BME280;8772;42.804;23.426;2023-01-29T07:08:17;74991.50;;;-140.58;100.00
17309;BME280;8772;42.804;23.426;2023-01-29T07:10:47;74997.66;;;-140.58;100.00
17309;BME280;8772;42.804;23.426;2023-01-29T07:13:14;75016.13;;;-140.58;100.00
17309;BME280;8772;42.804;23.426;2023-01-29T07:15:41;75018.16;;;-140.58;100.00
17309;BME280;8772;42.804;23.426;2023-01-29T07:18:10;75012.00;;;-140.58;100.00
17309;BME280;8772;42.804;23.426;2023-01-29T07:20:38;75005.84;;;-140.58;100.00
17309;BME280;8772;42.804;23.426;2023-01-29T07:23:07;74999.69;;;-140.58;100.00
17309;BME280;8772;42.804;23.426;2023-01-29T07:25:34;74991.50;;;-140.58;100.00
17309;BME280;8772;42.804;23.426;2023-01-29T07:28:01;74991.50;;;-140.58;100.00
17309;BME280;8772;42.804;23.426;2023-01-29T07:30:28;74981.22;;;-140.58;100.00
17309;BME280;8772;42.804;23.426;2023-01-29T07:33:00;74979.19;;;-140.58;100.00
17309;BME280;8772;42.804;23.426;2023-01-29T07:35:28;74985.34;;;-140.58;100.00
17309;BME280;8772;42.804;23.426;2023-01-29T07:37:55;74983.28;;;-140.58;100.00
17309;BME280;8772;42.804;23.426;2023-01-29T07:40:22;74977.13;;;-140.58;100.00
17309;BME280;8772;42.804;23.426;2023-01-29T07:42:49;74975.06;;;-140.58;100.00
17309;BME280;8772;42.804;23.426;2023-01-29T07:45:16;74975.06;;;-140.58;100.00
17309;BME280;8772;42.804;23.426;2023-01-29T07:47:43;74968.91;;;-140.58;100.00
17309;BME280;8772;42.804;23.426;2023-01-29T07:50:10;74966.88;;;-140.58;100.00
17309;BME280;8772;42.804;23.426;2023-01-29T07:52:39;74968.91;;;-140.58;100.00
17309;BME280;8772;42.804;23.426;2023-01-29T07:55:06;74975.06;;;-140.58;100.00
17309;BME280;8772;42.804;23.426;2023-01-29T07:57:33;74968.91;;;-140.58;100.00
17309;BME280;8772;42.804;23.426;2023-01-29T08:00:00;74966.88;;;-140.58;100.00
17309;BME280;8772;42.804;23.426;2023-01-29T08:02:27;74966.88;;;-140.58;100.00
17309;BME280;8772;42.804;23.426;2023-01-29T08:04:54;74962.75;;;-140.58;100.00
17309;BME280;8772;42.804;23.426;2023-01-29T08:07:20;74956.59;;;-140.58;100.00
17309;BME280;8772;42.804;23.426;2023-01-29T08:09:49;74958.66;;;-140.58;100.00
17309;BME280;8772;42.804;23.426;2023-01-29T08:12:16;74954.56;;;-140.58;100.00
17309;BME280;8772;42.804;23.426;2023-01-29T08:14:43;74952.50;;;-140.58;100.00
17309;BME280;8772;42.804;23.426;2023-01-29T08:17:10;74960.72;;;-140.58;100.00
17309;BME280;8772;42.804;23.426;2023-01-29T08:19:37;74960.72;;;-140.58;100.00
17309;BME280;8772;42.804;23.426;2023-01-29T08:22:04;74958.66;;;-140.58;100.00
17309;BME280;8772;42.804;23.426;2023-01-29T08:24:32;74946.34;;;-140.58;100.00
17309;BME280;8772;42.804;23.426;2023-01-29T08:27:00;74938.13;;;-140.58;100.00
17309;BME280;8772;42.804;23.426;2023-01-29T08:29:27;74938.13;;;-140.58;100.00
17309;BME280;8772;42.804;23.426;2023-01-29T08:31:54;74938.13;;;-140.58;100.00
17309;BME280;8772;42.804;23.426;2023-01-29T08:34:21;74934.03;;;-140.58;100.00
17309;BME280;8772;42.804;23.426;2023-01-29T08:36:48;74925.81;;;-140.58;100.00
17309;BME280;8772;42.804;23.426;2023-01-29T08:39:15;74929.94;;;-140.58;100.00
17309;BME280;8772;42.804;23.426;2023-01-29T08:41:41;74929.94;;;-140.58;100.00
17309;BME280;8772;42.804;23.426;2023-01-29T08:44:10;74927.88;;;-140.58;100.00
17309;BME280;8772;42.804;23.426;2023-01-29T08:46:37;74917.63;;;-140.58;100.00
17309;BME280;8772;42.804;23.426;2023-01-29T08:49:05;74913.50;;;-140.58;100.00
17309;BME280;8772;42.804;23.426;2023-01-29T08:51:32;74907.34;;;-140.58;100.00
17309;BME280;8772;42.804;23.426;2023-01-29T08:53:59;74907.34;;;-140.58;100.00
17309;BME280;8772;42.804;23.426;2023-01-29T08:56:26;74915.56;;;-140.58;100.00
17309;BME280;8772;42.804;23.426;2023-01-29T08:58:53;74913.50;;;-140.58;100.00
17309;BME280;8772;42.804;23.426;2023-01-29T09:01:21;74911.47;;;-140.58;100.00
17309;BME280;8772;42.804;23.426;2023-01-29T09:03:48;74909.41;;;-140.58;100.00
17309;BME280;8772;42.804;23.426;2023-01-29T09:06:16;74903.25;;;-140.58;100.00
17309;BME280;8772;42.804;23.426;2023-01-29T09:08:43;74905.31;;;-140.58;100.00
17309;BME280;8772;42.804;23.426;2023-01-29T09:11:10;74901.19;;;-140.58;100.00
17309;BME280;8772;42.804;23.426;2023-01-29T09:13:37;74893.00;;;-140.58;100.00
17309;BME280;8772;42.804;23.426;2023-01-29T09:16:05;74890.94;;;-140.58;100.00
17309;BME280;8772;42.804;23.426;2023-01-29T09:18:33;74893.00;;;-140.58;100.00
17309;BME280;8772;42.804;23.426;2023-01-29T09:21:00;74895.03;;;-140.58;100.00
17309;BME280;8772;42.804;23.426;2023-01-29T09:23:27;74880.69;;;-140.58;100.00
17309;BME280;8772;42.804;23.426;2023-01-29T09:25:54;74880.69;;;-140.58;100.00
17309;BME280;8772;42.804;23.426;2023-01-29T09:28:21;74876.56;;;-140.58;100.00
17309;BME280;8772;42.804;23.426;2023-01-29T09:30:48;74862.22;;;-140.58;100.00
17309;BME280;8772;42.804;23.426;2023-01-29T09:33:15;74862.22;;;-140.58;100.00
17309;BME280;8772;42.804;23.426;2023-01-29T09:35:44;74851.94;;;-140.58;100.00
17309;BME280;8772;42.804;23.426;2023-01-29T09:38:12;74858.09;;;-140.58;100.00
17309;BME280;8772;42.804;23.426;2023-01-29T09:40:46;74868.38;;;-140.58;100.00
17309;BME280;8772;42.804;23.426;2023-01-29T09:43:19;74860.16;;;-140.58;100.00
17309;BME280;8772;42.804;23.426;2023-01-29T09:45:52;74862.22;;;-140.58;100.00
17309;BME280;8772;42.804;23.426;2023-01-29T09:48:22;74864.25;;;-140.58;100.00
17309;BME280;8772;42.804;23.426;2023-01-29T09:50:55;74856.06;;;-140.58;100.00
17309;BME280;8772;42.804;23.426;2023-01-29T09:53:28;74856.06;;;-140.58;100.00
17309;BME280;8772;42.804;23.426;2023-01-29T09:56:01;74845.78;;;-140.58;100.00
17309;BME280;8772;42.804;23.426;2023-01-29T09:58:31;74843.75;;;-140.58;100.00
17309;BME280;8772;42.804;23.426;2023-01-29T10:01:09;74841.69;;;-140.58;100.00
17309;BME280;8772;42.804;23.426;2023-01-29T10:03:49;74831.44;;;-140.58;100.00
17309;BME280;8772;42.804;23.426;2023-01-29T10:06:30;74827.31;;;-140.58;100.00
17309;BME280;8772;42.804;23.426;2023-01-29T10:09:27;74819.13;;;-140.58;100.00
17309;BME280;8772;42.804;23.426;2023-01-29T10:12:08;74815.00;;;-140.58;100.00
17309;BME280;8772;42.804;23.426;2023-01-29T10:14:44;74806.81;;;-140.58;100.00
17309;BME280;8772;42.804;23.426;2023-01-29T10:17:28;74823.22;;;-140.58;100.00
17309;BME280;8772;42.804;23.426;2023-01-29T10:20:18;74823.22;;;-140.58;100.00
17309;BME280;8772;42.804;23.426;2023-01-29T10:23:00;74827.31;;;-140.58;100.00
17309;BME280;8772;42.804;23.426;2023-01-29T10:25:33;74821.16;;;-140.58;100.00
17309;BME280;8772;42.804;23.426;2023-01-29T10:28:02;74823.22;;;-140.58;100.00
17309;BME280;8772;42.804;23.426;2023-01-29T10:30:33;74815.00;;;-140.58;100.00
17309;BME280;8772;42.804;23.426;2023-01-29T10:33:04;74810.91;;;-140.58;100.00
17309;BME280;8772;42.804;23.426;2023-01-29T10:35:34;74804.75;;;-140.58;100.00
17309;BME280;8772;42.804;23.426;2023-01-29T10:38:17;74806.81;;;-140.58;100.00
17309;BME280;8772;42.804;23.426;2023-01-29T10:40:51;74815.00;;;-140.58;100.00
17309;BME280;8772;42.804;23.426;2023-01-29T10:43:28;74810.91;;;-140.58;100.00
17309;BME280;8772;42.804;23.426;2023-01-29T10:46:06;74802.69;;;-140.58;100.00
17309;BME280;8772;42.804;23.426;2023-01-29T10:48:43;74798.59;;;-140.58;100.00
17309;BME280;8772;42.804;23.426;2023-01-29T10:51:22;74790.38;;;-140.58;100.00
17309;BME280;8772;42.804;23.426;2023-01-29T10:54:09;74786.28;;;-140.58;100.00
17309;BME280;8772;42.804;23.426;2023-01-29T10:56:51;74802.69;;;-140.58;100.00
17309;BME280;8772;42.804;23.426;2023-01-29T10:59:35;74802.69;;;-140.58;100.00
17309;BME280;8772;42.804;23.426;2023-01-29T11:02:14;74802.69;;;-140.58;100.00
17309;BME280;8772;42.804;23.426;2023-01-29T11:04:42;74800.66;;;-140.58;100.00
17309;BME280;8772;42.804;23.426;2023-01-29T11:07:09;74790.38;;;-140.58;100.00
17309;BME280;8772;42.804;23.426;2023-01-29T11:09:41;74798.59;;;-140.58;100.00
17309;BME280;8772;42.804;23.426;2023-01-29T11:12:12;74786.28;;;-140.58;100.00
17309;BME280;8772;42.804;23.426;2023-01-29T11:14:44;74778.06;;;-140.58;100.00
17309;BME280;8772;42.804;23.426;2023-01-29T11:17:15;74763.72;;;-140.58;100.00
17309;BME280;8772;42.804;23.426;2023-01-29T11:19:44;74761.66;;;-140.58;100.00
17309;BME280;8772;42.804;23.426;2023-01-29T11:22:13;74773.97;;;-140.58;100.00
17309;BME280;8772;42.804;23.426;2023-01-29T11:24:42;74798.59;;;-140.58;100.00
17309;BME280;8772;42.804;23.426;2023-01-29T11:27:13;74806.81;;;-140.58;100.00
17309;BME280;8772;42.804;23.426;2023-01-29T11:29:42;74798.59;;;-140.58;100.00
17309;BME280;8772;42.804;23.426;2023-01-29T11:32:23;74798.59;;;-140.58;100.00
17309;BME280;8772;42.804;23.426;2023-01-29T11:34:59;74794.50;;;-140.58;100.00
17309;BME280;8772;42.804;23.426;2023-01-29T11:37:36;74806.81;;;-140.58;100.00
17309;BME280;8772;42.804;23.426;2023-01-29T11:43:30;74798.59;;;-140.58;100.00
17309;BME280;8772;42.804;23.426;2023-01-29T11:46:00;74796.53;;;-140.58;100.00
17309;BME280;8772;42.804;23.426;2023-01-29T11:48:43;74790.38;;;-140.58;100.00
17309;BME280;8772;42.804;23.426;2023-01-29T11:51:20;74784.22;;;-140.58;100.00
17309;BME280;8772;42.804;23.426;2023-01-29T11:53:51;74773.97;;;-140.58;100.00
17309;BME280;8772;42.804;23.426;2023-01-29T11:56:21;74761.66;;;-140.58;100.00
17309;BME280;8772;42.804;23.426;2023-01-29T11:58:52;74759.59;;;-140.58;100.00
17309;BME280;8772;42.804;23.426;2023-01-29T12:01:29;74753.44;;;-140.58;100.00
17309;BME280;8772;42.804;23.426;2023-01-29T12:03:56;74747.28;;;-140.58;100.00
17309;BME280;8772;42.804;23.426;2023-01-29T12:06:27;74745.25;;;-140.58;100.00
17309;BME280;8772;42.804;23.426;2023-01-29T12:08:59;74751.41;;;-140.58;100.00
17309;BME280;8772;42.804;23.426;2023-01-29T12:11:29;74761.66;;;-140.58;100.00
17309;BME280;8772;42.804;23.426;2023-01-29T12:13:59;74765.75;;;-140.58;100.00
17309;BME280;8772;42.804;23.426;2023-01-29T12:16:29;74773.97;;;-140.58;100.00
17309;BME280;8772;42.804;23.426;2023-01-29T12:19:04;74773.97;;;-140.58;100.00
17309;BME280;8772;42.804;23.426;2023-01-29T12:21:38;74778.06;;;-140.58;100.00
17309;BME280;8772;42.804;23.426;2023-01-29T12:24:19;74794.50;;;-140.58;100.00
17309;BME280;8772;42.804;23.426;2023-01-29T12:26:53;74788.34;;;-140.58;100.00
17309;BME280;8772;42.804;23.426;2023-01-29T12:29:32;74796.53;;;-140.58;100.00
17309;BME280;8772;42.804;23.426;2023-01-29T12:32:06;74782.19;;;-140.58;100.00
17309;BME280;8772;42.804;23.426;2023-01-29T12:34:43;74790.38;;;-140.58;100.00
17309;BME280;8772;42.804;23.426;2023-01-29T12:37:18;74790.38;;;-140.58;100.00
17309;BME280;8772;42.804;23.426;2023-01-29T12:39:47;74788.34;;;-140.58;100.00
17309;BME280;8772;42.804;23.426;2023-01-29T12:42:17;74786.28;;;-140.58;100.00
17309;BME280;8772;42.804;23.426;2023-01-29T12:44:49;74794.50;;;-140.58;100.00
17309;BME280;8772;42.804;23.426;2023-01-29T12:47:24;74786.28;;;-140.58;100.00
17309;BME280;8772;42.804;23.426;2023-01-29T12:49:56;74786.28;;;-140.58;100.00
17309;BME280;8772;42.804;23.426;2023-01-29T12:52:35;74798.59;;;-140.58;100.00
17309;BME280;8772;42.804;23.426;2023-01-29T12:55:10;74782.19;;;-140.58;100.00
17309;BME280;8772;42.804;23.426;2023-01-29T12:57:42;74769.88;;;-140.58;100.00
17309;BME280;8772;42.804;23.426;2023-01-29T13:00:14;74773.97;;;-140.58;100.00
17309;BME280;8772;42.804;23.426;2023-01-29T13:02:48;74765.75;;;-140.58;100.00